METAR Data
IDs: Format: Raw Decoded Include TAF

Data at: 2104 UTC 18 Sep 2018

KAJG 182055Z AUTO 28008KT 10SM CLR 33/17 A2991 RMK AO2 T03260166
KAJG 182035Z AUTO 29007KT 250V310 10SM CLR 34/16 A2991 RMK AO2 T03380160
KAJG 182015Z AUTO 25009G14KT 10SM CLR 34/18 A2991 RMK AO2 T03350181
KAJG 181955Z AUTO 25006KT 10SM SCT110 33/18 A2991 RMK AO2 T03340175
KAJG 181935Z AUTO 25007KT 10SM SCT095 SCT120 34/17 A2992 RMK AO2 T03370167
KAJG 181915Z AUTO 27006KT 10SM SCT120 34/16 A2992 RMK AO2 T03360164
KAJG 181855Z AUTO 28004KT 10SM SCT120 33/17 A2993 RMK AO2 T03310173
KAJG 181835Z AUTO 28007KT 10SM SCT090 BKN110 32/17 A2994 RMK AO2 T03240170
KAJG 181815Z AUTO 30005KT 10SM SCT065 SCT100 33/17 A2994 RMK AO2 T03250168
KAJG 181755Z AUTO 26004KT 10SM CLR 33/17 A2995 RMK AO2 T03250165 10329 20187
KAJG 181735Z AUTO 29006KT 10SM SCT085 BKN110 33/17 A2995 RMK AO2 T03280170
KAJG 181715Z AUTO 00000KT 10SM SCT085 OVC110 32/16 A2996 RMK AO2 T03230157
KAJG 181655Z AUTO 31005KT 10SM SCT085 BKN110 32/17 A2996 RMK AO2 T03210166
KAJG 181635Z AUTO 00000KT 10SM SCT110 32/17 A2996 RMK AO2 T03220167
KAJG 181615Z AUTO 27006KT 10SM SCT100 32/17 A2997 RMK AO2 T03170174
KAJG 181555Z AUTO 27005KT 10SM SCT100 31/18 A2997 RMK AO2 T03110175
KAJG 181535Z AUTO 32004KT 10SM SCT110 30/19 A2997 RMK AO2 T03020186
KAJG 181515Z AUTO 30003KT 10SM SCT100 29/20 A2998 RMK AO2 T02890196
KAJG 181455Z AUTO 28004KT 10SM BKN100 28/20 A2998 RMK AO2 T02800196
KAJG 181435Z AUTO 28004KT 10SM BKN100 26/20 A2999 RMK AO2 T02640198
KAJG 181415Z AUTO 30003KT 10SM BKN090 26/20 A2999 RMK AO2 T02600203
KAJG 181355Z AUTO 00000KT 10SM OVC090 24/21 A2998 RMK AO2 T02440213
KAJG 181335Z AUTO 00000KT 10SM OVC090 24/21 A2998 RMK AO2 T02380213
KAJG 181315Z AUTO 26003KT 10SM BKN090 23/22 A2999 RMK AO2 T02260216
KAJG 181255Z AUTO 00000KT 10SM BKN100 21/21 A2998 RMK AO2 T02120208
KAJG 181235Z AUTO 00000KT 10SM BKN100 20/20 A2998 RMK AO2 T01990195
KAJG 181215Z AUTO 00000KT 4SM BR BKN100 19/19 A2998 RMK AO2 T01920188
KAJG 181155Z AUTO 00000KT 7SM BKN100 19/19 A2997 RMK AO2 T01900185 10217 20186
KAJG 181135Z AUTO 00000KT 2 1/2SM BR SCT100 19/19 A2997 RMK AO2 T01880185
KAJG 181115Z AUTO 00000KT 5SM BR CLR 19/19 A2996 RMK AO2 T01920188
KAJG 181055Z AUTO 00000KT 7SM CLR 19/19 A2996 RMK AO2 T01920188
KAJG 181035Z AUTO 00000KT 7SM CLR 19/19 A2995 RMK AO2 T01900186
KAJG 181015Z AUTO 00000KT 7SM CLR 19/19 A2995 RMK AO2 T01920188
KAJG 180955Z AUTO 00000KT 7SM CLR 20/19 A2995 RMK AO2 T01950191
KAJG 180935Z AUTO 00000KT 10SM CLR 21/21 A2995 RMK AO2 T02090205
KAJG 180915Z AUTO 00000KT 10SM CLR 20/20 A2995 RMK AO2 T02040200
KAJG 180855Z AUTO 27003KT 10SM CLR 20/19 A2994 RMK AO2 T01960192
KAJG 180835Z AUTO 00000KT 10SM CLR 20/20 A2994 RMK AO2 T02040200
KAJG 180815Z AUTO 00000KT 10SM CLR 21/21 A2994 RMK AO2 T02100205
KAJG 180755Z AUTO 00000KT 10SM CLR 21/20 A2994 RMK AO2 T02100203
KAJG 180735Z AUTO 00000KT 10SM SCT110 21/20 A2994 RMK AO2 T02070203
KAJG 180715Z AUTO 00000KT 10SM SCT095 SCT110 21/20 A2995 RMK AO2 T02050201
KAJG 180655Z AUTO 00000KT 10SM SCT085 22/21 A2995 RMK AO2 T02150205
KAJG 180635Z AUTO 00000KT 10SM SCT085 BKN120 21/21 A2995 RMK AO2 T02140206
KAJG 180615Z AUTO 00000KT 10SM SCT120 21/21 A2995 RMK AO2 T02140205
KAJG 180555Z AUTO 00000KT 10SM SCT080 SCT120 21/21 A2995 RMK AO2 T02130206 10278 20210 403230192
KAJG 180535Z AUTO 00000KT 10SM SCT080 21/20 A2995 RMK AO2 T02140204
KAJG 180515Z AUTO 00000KT 10SM CLR 21/21 A2995 RMK AO2 T02120205
KAJG 180455Z AUTO 00000KT 10SM CLR 22/21 A2996 RMK AO2 T02150205
KAJG 180435Z AUTO 00000KT 10SM CLR 22/21 A2995 RMK AO2 T02200209
KAJG 180415Z AUTO 00000KT 10SM CLR 21/21 A2995 RMK AO2 T02130209
KAJG 180355Z AUTO 00000KT 10SM CLR 22/21 A2994 RMK AO2 T02220210
KAJG 180335Z AUTO 00000KT 10SM CLR 23/21 A2995 RMK AO2 T02300210
KAJG 180315Z AUTO 00000KT 10SM CLR 23/21 A2995 RMK AO2 T02310210
KAJG 180255Z AUTO 00000KT 10SM CLR 22/21 A2994 RMK AO2 T02210212
KAJG 180235Z AUTO 00000KT 10SM CLR 24/21 A2994 RMK AO2 T02350212
KAJG 180215Z AUTO 00000KT 5SM BR CLR 23/21 A2994 RMK AO2 T02310214
KAJG 180155Z AUTO 00000KT 4SM HZ CLR 24/21 A2994 RMK AO2 T02400210
KAJG 180135Z AUTO 00000KT 10SM CLR 25/21 A2993 RMK AO2 T02450211
KAJG 180115Z AUTO 00000KT 10SM CLR 25/21 A2993 RMK AO2 T02500207
KAJG 180055Z AUTO 00000KT 10SM CLR 25/21 A2992 RMK AO2 T02530214
KAJG 180035Z AUTO 00000KT 10SM CLR 27/20 A2991 RMK AO2 T02670201
KAJG 180015Z AUTO 00000KT 10SM CLR 27/20 A2991 RMK AO2 T02680202
KAJG 172355Z AUTO 00000KT 10SM CLR 28/20 A2991 RMK AO2 T02820197 10323 20282
KAJG 172335Z AUTO 00000KT 10SM CLR 30/19 A2990 RMK AO2 T03020187
KAJG 172315Z AUTO 27003KT 10SM CLR 31/19 A2990 RMK AO2 T03100186
KAJG 172255Z AUTO 00000KT 10SM CLR 32/18 A2989 RMK AO2 T03150179
KAJG 172235Z AUTO 31003KT 7SM SCT002 SCT070 SCT085 32/18 A2989 RMK AO2 T03150179
KAJG 172215Z AUTO 27003KT 10SM SCT070 SCT085 31/18 A2989 RMK AO2 T03110184
KAJG 172155Z AUTO 00000KT 10SM CLR 31/19 A2989 RMK AO2 T03070187
KAJG 172135Z AUTO 33003KT 10SM CLR 31/18 A2989 RMK AO2 T03070175
KAJG 172115Z AUTO 35005KT 10SM CLR 32/18 A2989 RMK AO2 T03160178
KAJG 172055Z AUTO 03004KT 10SM SCT060 32/18 A2989 RMK AO2 T03170178
KAJG 172035Z AUTO 02007KT 10SM BKN060 32/19 A2989 RMK AO2 T03190185
KAJG 172015Z AUTO 29003KT 7SM SCT002 SCT060 32/17 A2990 RMK AO2 T03200172
KAJG 171955Z AUTO 02004KT 7SM SCT050 32/18 A2990 RMK AO2 T03170178
KAJG 171935Z AUTO 04003KT 10SM SCT050 31/18 A2990 RMK AO2 T03120183
KAJG 171915Z AUTO 03005KT 10SM SCT050 32/18 A2991 RMK AO2 T03150184
KAJG 171855Z AUTO 00000KT 10SM CLR 30/18 A2993 RMK AO2 T03040184
KAJG 171835Z AUTO 00000KT 10SM SCT048 31/18 A2993 RMK AO2 T03070178
KAJG 171815Z AUTO 00000KT 10SM SCT050 30/19 A2994 RMK AO2 T03010189
KAJG 171755Z AUTO 29006KT 10SM SCT045 SCT060 30/19 A2994 RMK AO2 T03040188 10306 20195
KAJG 171735Z AUTO 35006KT 10SM SCT041 SCT060 30/20 A2995 RMK AO2 T03000196
KAJG 171715Z AUTO 35005KT 10SM SCT041 SCT047 BKN055 29/20 A2995 RMK AO2 T02860195
KAJG 171655Z AUTO 34003KT 10SM SCT037 SCT046 SCT050 29/20 A2996 RMK AO2 T02850198
KAJG 171635Z AUTO 03005KT 10SM SCT037 SCT044 28/20 A2996 RMK AO2 T02790200
KAJG 171615Z AUTO 02005KT 10SM SCT037 29/20 A2996 RMK AO2 T02860200
KAJG 171555Z AUTO 01005KT 10SM SCT035 28/20 A2997 RMK AO2 T02810196
KAJG 171535Z AUTO 34006KT 300V010 10SM SCT029 29/21 A2997 RMK AO2 T02880206
KAJG 171515Z AUTO 31005KT 10SM SCT027 28/21 A2997 RMK AO2 T02780206
KAJG 171455Z AUTO 03003KT 10SM CLR 27/21 A2997 RMK AO2 T02650211
KAJG 171435Z AUTO 00000KT 10SM CLR 25/22 A2997 RMK AO2 T02540217
KAJG 171415Z AUTO 33003KT 10SM CLR 24/22 A2997 RMK AO2 T02360220
KAJG 171355Z AUTO 00000KT 10SM CLR 23/22 A2997 RMK AO2 T02270218
KAJG 171335Z AUTO 00000KT 10SM CLR 22/22 A2996 RMK AO2 T02230217
KAJG 171315Z AUTO 00000KT 10SM CLR 22/22 A2996 RMK AO2 T02210215
KAJG 171255Z AUTO 00000KT 10SM CLR 22/21 A2996 RMK AO2 T02170213
KAJG 171235Z AUTO 00000KT 7SM CLR 21/20 A2996 RMK AO2 T02070203
KAJG 171215Z AUTO 00000KT 5SM BR CLR 20/19 A2996 RMK AO2 T01970193
KAJG 171155Z AUTO 00000KT 5SM BR CLR 20/19 A2996 RMK AO2 T01950190 10205 20192
KAJG 171135Z AUTO 00000KT 7SM CLR 19/19 A2995 RMK AO2 T01920188
KAJG 171115Z AUTO 00000KT 7SM CLR 20/19 A2995 RMK AO2 T01950191
KAJG 171055Z AUTO 00000KT 7SM CLR 19/19 A2994 RMK AO2 T01920188
KAJG 171035Z AUTO 00000KT 7SM CLR 20/19 A2994 RMK AO2 T01950191
KAJG 171015Z AUTO 00000KT 10SM CLR 20/20 A2994 RMK AO2 T01980195
KAJG 170955Z AUTO 00000KT 10SM CLR 20/19 A2994 RMK AO2 T01980194
KAJG 170935Z AUTO 00000KT 7SM CLR 20/19 A2993 RMK AO2 T01960193
KAJG 170915Z AUTO 00000KT 7SM CLR 20/19 A2993 RMK AO2 T01950191